Illiopolis, Illinois
Current Conditions -  °F | °C
As of 10:07 AM on Saturday 25 Oct 2014 (Local Time) from KDEC Reporting Station
Haze Haze  
Wind Chill: 61°   Ceiling: 300
Heat Index: 61°   Visibility: 2mi
Dew Point: 59°   Wind: 6mph
Humidity: 93%   Direction: 290°WNW
Pressure: 30.03"   Gusts: NA
Location:  39.85°N, 89.24°W
Report Text: KDEC 251507Z 29005KT 2SM BR OVC003 16/15 A3003 RMK AO2 T01610150
Loading
Personal Weather Stations






























Interactive Weather Map New forecast layout! Learn more

10-Day Weather Forecast

Advertisements
Track Severe Weather on mobile